New Deal, TX

5:14 PM CDT on October 31, 2014 (GMT -0500)
Lubbock International | Change Station
CLOSE
Current Station
Airport
Location: Lubbock,
Elevation: 3241 ft
Nearby Weather Stations

Elev 3241 ft 33.67 °N, 101.82 °W | Updated 21 minutes ago

Overcast
Overcast
65 °F
Feels Like 65 °F
N
8
Wind Variable Wind from ESE

Today
High -- | Low -- °F
--% Chance of Precip.
Yesterday
High -- | Low -- °F
Precip. -- in
8:05 AM 6:55 PM
First Quarter, 59% visible
Pressure 30.29 in
Visibility 10.0 miles
Clouds Few 27000 ft
Overcast 30000 ft
Dew Point 30 °F
Humidity 27%
Rainfall 0.00 in
Snow Depth Not available.
UV 1 out of 12
Pollen 5.60 out of 12
Air Quality Not available.
Flu Activity Not available.
METAR KLBB 312153Z 11007KT 10SM FEW270 OVC300 18/M01 A3034 RMK AO2 SLP255 T01831011

More Conditions Fewer Conditions

Pressure 30.29 in
Visibility 10.0 miles
Clouds Few 27000 ft
Overcast 30000 ft
Dew Point 30 °F
Humidity 27%
Rainfall 0.00 in
Snow Depth Not available.
UV 1 out of 12
Pollen 5.60 out of 12
Air Quality Not available.
Flu Activity Not available.
METAR KLBB 312153Z 11007KT 10SM FEW270 OVC300 18/M01 A3034 RMK AO2 SLP255 T01831011

More Conditions Fewer Conditions

10-Day Weather Forecast

Almanac

Astronomy

Oct. 31, 2014 Rise Set
Actual Time
Civil Twilight
Nautical Twilight
Astronomical Twilight
Moon
Length of Visible Light
Length of Day
Tomorrow will be .
, % of the Moon is Illuminated

Today's Extremes

State Highs State Lows

Community

WunderPhotos

Upload Photos

1,766,757 photos uploaded!

WunderBlogs® & News

Nearby

Air Quality

  Air Quality AQ Index Pollutant
Not available.

Snow Depth

Station Depth Elevation

Earthquake Activity

City Distance Mag. Time & Date
Minimum magnitude displayed is 2.5.

Coastal Water Temperatures

Place Temperature

Nearby Weather Stations